createdAt,value
2018-04-02T00:01:39.488Z,6.00
2018-04-02T00:04:07.612Z,4.87
2018-04-02T00:06:35.727Z,5.20
2018-04-02T00:09:03.316Z,4.80
2018-04-02T00:11:30.896Z,5.53
2018-04-02T00:13:58.997Z,6.60
2018-04-02T00:16:26.548Z,7.87
2018-04-02T00:18:54.163Z,6.70
2018-04-02T00:21:21.753Z,5.93
2018-04-02T00:23:49.295Z,7.40
2018-04-02T00:26:16.892Z,5.93
2018-04-02T00:28:44.916Z,7.97
2018-04-02T00:31:12.538Z,5.80
2018-04-02T00:33:40.939Z,6.87
2018-04-02T00:36:08.481Z,8.30
2018-04-02T00:38:36.079Z,6.90
2018-04-02T00:41:04.232Z,8.20
2018-04-02T00:43:31.994Z,6.77
2018-04-02T00:45:59.543Z,6.87
2018-04-02T00:48:27.100Z,6.60
2018-04-02T00:50:54.688Z,5.70
2018-04-02T00:53:22.849Z,8.27
2018-04-02T00:55:50.396Z,8.20
2018-04-02T00:58:18.330Z,9.77
2018-04-02T01:00:45.932Z,8.53
2018-04-02T01:03:13.986Z,8.70
2018-04-02T01:05:41.593Z,14.43
2018-04-02T01:08:09.484Z,12.10
2018-04-02T01:10:37.036Z,7.00
2018-04-02T01:13:04.604Z,10.93
2018-04-02T01:15:32.298Z,5.97
2018-04-02T01:18:00.254Z,9.73
2018-04-02T01:20:27.986Z,7.67
2018-04-02T01:22:56.060Z,8.43
2018-04-02T01:25:23.620Z,10.43
2018-04-02T01:27:51.566Z,8.40
2018-04-02T01:30:19.168Z,6.83
2018-04-02T01:32:47.020Z,11.00
2018-04-02T01:35:14.570Z,5.67
2018-04-02T01:37:42.653Z,5.60
2018-04-02T01:40:10.584Z,6.77
2018-04-02T01:42:38.436Z,6.57
2018-04-02T01:45:06.576Z,5.80
2018-04-02T01:47:34.161Z,7.43
2018-04-02T01:50:01.834Z,7.63
2018-04-02T01:52:29.417Z,5.67
2018-04-02T01:54:57.248Z,5.50
2018-04-02T01:57:25.493Z,5.27
2018-04-02T01:59:54.695Z,5.63
2018-04-02T02:02:22.686Z,7.30
2018-04-02T02:04:50.680Z,5.63
2018-04-02T02:07:18.867Z,7.57
2018-04-02T02:09:46.414Z,5.73
2018-04-02T02:12:14.025Z,6.30
2018-04-02T02:14:41.568Z,6.17
2018-04-02T02:17:09.555Z,8.00
2018-04-02T02:19:37.104Z,7.27
2018-04-02T02:22:04.724Z,11.70
2018-04-02T02:24:32.281Z,7.73
2018-04-02T02:26:59.829Z,8.90
2018-04-02T02:29:27.424Z,9.13
2018-04-02T02:31:54.985Z,11.93
2018-04-02T02:34:23.164Z,11.90
2018-04-02T02:36:50.754Z,9.60
2018-04-02T02:39:18.921Z,9.27
2018-04-02T02:41:46.508Z,9.63
2018-04-02T02:44:14.083Z,10.30
2018-04-02T02:46:42.487Z,7.47
2018-04-02T02:49:10.402Z,8.30
2018-04-02T02:51:38.013Z,11.00
2018-04-02T02:54:05.574Z,6.33
2018-04-02T02:56:33.139Z,13.00
2018-04-02T02:59:00.692Z,9.90
2018-04-02T03:01:28.325Z,8.73
2018-04-02T03:03:55.876Z,12.00
2018-04-02T03:06:24.135Z,10.20
2018-04-02T03:08:52.320Z,8.97
2018-04-02T03:11:19.896Z,14.73
2018-04-02T03:13:47.512Z,9.03
2018-04-02T03:16:15.755Z,12.87
2018-04-02T03:18:43.873Z,9.97
2018-04-02T03:21:11.420Z,12.13
2018-04-02T03:23:39.024Z,13.37
2018-04-02T03:26:06.575Z,14.33
2018-04-02T03:28:34.785Z,12.23
2018-04-02T03:31:02.400Z,16.93
2018-04-02T03:33:30.009Z,17.73
2018-04-02T03:35:57.564Z,12.97
2018-04-02T03:38:25.174Z,18.57
2018-04-02T03:40:53.162Z,12.33
2018-04-02T03:43:20.718Z,15.67
2018-04-02T03:45:48.278Z,17.77
2018-04-02T03:48:15.868Z,16.60
2018-04-02T03:50:43.494Z,15.70
2018-04-02T03:53:11.492Z,14.37
2018-04-02T03:55:39.602Z,14.87
2018-04-02T03:58:07.549Z,10.20
2018-04-02T04:00:35.246Z,8.40
2018-04-02T04:03:02.792Z,10.70
2018-04-02T04:05:30.341Z,8.57
2018-04-02T04:07:57.928Z,8.90
2018-04-02T04:10:25.491Z,9.90
2018-04-02T04:12:53.099Z,10.63
2018-04-02T04:15:21.057Z,7.43
2018-04-02T04:17:48.937Z,9.00
2018-04-02T04:20:16.788Z,6.93
2018-04-02T04:22:44.339Z,10.00
2018-04-02T04:25:12.583Z,10.03
2018-04-02T04:27:40.141Z,10.50
2018-04-02T04:30:07.692Z,13.33
2018-04-02T04:32:37.705Z,17.37
2018-04-02T04:35:05.260Z,13.20
2018-04-02T04:37:33.418Z,13.20
2018-04-02T04:40:00.964Z,13.43
2018-04-02T04:42:28.556Z,15.63
2018-04-02T04:44:56.123Z,12.77
2018-04-02T04:47:23.739Z,12.57
2018-04-02T04:49:51.801Z,17.50
2018-04-02T04:52:19.391Z,19.00
2018-04-02T04:54:46.971Z,10.37
2018-04-02T04:57:15.422Z,12.03
2018-04-02T04:59:43.419Z,13.05
2018-04-02T05:02:11.786Z,13.80
2018-04-02T05:04:39.400Z,12.75
2018-04-02T05:07:07.026Z,8.97
2018-04-02T05:09:34.576Z,10.03
2018-04-02T05:12:03.766Z,9.20
2018-04-02T05:14:31.371Z,15.43
2018-04-02T05:16:58.938Z,8.27
2018-04-02T05:19:26.543Z,12.23
2018-04-02T05:21:54.824Z,9.90
2018-04-02T05:24:24.920Z,11.03
2018-04-02T05:26:52.528Z,11.50
2018-04-02T05:29:20.503Z,9.57
2018-04-02T05:31:48.079Z,7.17
2018-04-02T05:34:16.105Z,10.77
2018-04-02T05:36:43.690Z,12.30
2018-04-02T05:39:11.853Z,9.97
2018-04-02T05:41:40.730Z,10.10
2018-04-02T05:44:08.340Z,8.88
2018-04-02T05:46:35.899Z,11.00
2018-04-02T05:49:04.072Z,7.67
2018-04-02T05:51:31.688Z,9.57
2018-04-02T05:54:00.132Z,13.53
2018-04-02T05:56:28.756Z,11.90
2018-04-02T05:58:56.367Z,9.57
2018-04-02T06:01:23.991Z,7.50
2018-04-02T06:03:51.638Z,10.07
2018-04-02T06:06:19.793Z,9.77
2018-04-02T06:08:48.099Z,5.67
2018-04-02T06:11:17.393Z,8.43
2018-04-02T06:13:45.548Z,10.57
2018-04-02T06:16:13.321Z,8.97
2018-04-02T06:18:42.697Z,7.90
2018-04-02T06:21:10.322Z,11.50
2018-04-02T06:23:37.877Z,7.30
2018-04-02T06:26:05.474Z,9.47
2018-04-02T06:28:33.053Z,6.82
2018-04-02T06:31:00.781Z,7.77
2018-04-02T06:33:28.561Z,10.53
2018-04-02T06:35:56.403Z,8.63
2018-04-02T06:38:24.001Z,7.33
2018-04-02T06:40:51.616Z,9.37
2018-04-02T06:43:19.460Z,9.47
2018-04-02T06:45:47.017Z,7.90
2018-04-02T06:48:14.637Z,17.25
2018-04-02T06:50:42.213Z,10.50
2018-04-02T06:53:12.288Z,11.13
2018-04-02T06:55:39.837Z,8.75
2018-04-02T06:58:08.093Z,16.20
2018-04-02T07:00:35.664Z,11.37
2018-04-02T07:03:04.500Z,10.20
2018-04-02T07:05:32.317Z,13.70
2018-04-02T07:08:00.958Z,5.23
2018-04-02T07:10:29.505Z,7.90
2018-04-02T07:12:57.117Z,10.70
2018-04-02T07:15:24.680Z,7.80
2018-04-02T07:17:52.248Z,9.37
2018-04-02T07:20:20.247Z,10.13
2018-04-02T07:22:47.962Z,9.00
2018-04-02T07:25:15.569Z,8.77
2018-04-02T07:27:44.092Z,8.67
2018-04-02T07:30:11.757Z,9.73
2018-04-02T07:32:39.353Z,5.93
2018-04-02T07:35:06.912Z,7.23
2018-04-02T07:37:34.556Z,8.60
2018-04-02T07:40:02.170Z,8.20
2018-04-02T07:42:29.789Z,23.80
2018-04-02T07:44:57.521Z,36.97
2018-04-02T07:47:25.072Z,26.67
2018-04-02T07:49:52.842Z,30.53
2018-04-02T07:52:20.447Z,20.50
2018-04-02T07:54:48.595Z,20.52
2018-04-02T07:57:16.153Z,11.07
2018-04-02T07:59:44.489Z,14.73
2018-04-02T08:02:12.051Z,8.73
2018-04-02T08:04:39.616Z,6.43
2018-04-02T08:07:08.509Z,5.37
2018-04-02T08:09:36.275Z,13.50
2018-04-02T08:12:04.217Z,11.85
2018-04-02T08:14:31.786Z,11.98
2018-04-02T08:16:59.602Z,8.90
2018-04-02T08:19:27.219Z,13.43
2018-04-02T08:21:55.608Z,13.53
2018-04-02T08:24:23.169Z,9.43
2018-04-02T08:26:52.383Z,9.67
2018-04-02T08:29:21.256Z,6.47
2018-04-02T08:31:48.941Z,9.40
2018-04-02T08:34:16.497Z,9.70
2018-04-02T08:36:44.054Z,8.47
2018-04-02T08:39:11.660Z,3.80
2018-04-02T08:41:40.901Z,8.52
2018-04-02T08:44:08.469Z,8.83
2018-04-02T08:46:36.108Z,7.67
2018-04-02T08:49:03.700Z,3.90
2018-04-02T08:51:31.627Z,11.30
2018-04-02T08:53:59.221Z,9.27
2018-04-02T08:56:27.164Z,8.88
2018-04-02T08:58:55.318Z,8.70
2018-04-02T09:01:23.819Z,9.17
2018-04-02T09:03:51.524Z,10.00
2018-04-02T09:06:19.107Z,8.07
2018-04-02T09:08:48.133Z,6.83
2018-04-02T09:11:16.511Z,5.67
2018-04-02T09:13:44.064Z,12.37
2018-04-02T09:16:12.597Z,7.00
2018-04-02T09:18:40.189Z,7.50
2018-04-02T09:21:07.804Z,11.50
2018-04-02T09:23:35.361Z,6.90
2018-04-02T09:26:02.976Z,7.20
2018-04-02T09:28:30.603Z,15.43
2018-04-02T09:30:58.262Z,16.77
2018-04-02T09:33:25.900Z,11.52
2018-04-02T09:35:53.544Z,9.20
2018-04-02T09:38:21.309Z,8.63
2018-04-02T09:40:48.868Z,13.57
2018-04-02T09:43:16.853Z,13.50
2018-04-02T09:45:44.419Z,26.33
2018-04-02T09:48:12.788Z,15.95
2018-04-02T09:50:40.419Z,9.10
2018-04-02T09:53:10.215Z,8.70
2018-04-02T09:55:38.125Z,7.60
2018-04-02T09:58:05.721Z,12.10
2018-04-02T10:00:34.961Z,8.65
2018-04-02T10:03:03.493Z,12.00
2018-04-02T10:05:31.088Z,15.43
2018-04-02T10:07:58.700Z,15.57
2018-04-02T10:10:26.577Z,9.55
2018-04-02T10:12:54.164Z,9.33
2018-04-02T10:15:21.717Z,9.90
2018-04-02T10:17:49.572Z,15.47
2018-04-02T10:20:17.159Z,13.60
2018-04-02T10:22:44.889Z,14.63
2018-04-02T10:25:13.423Z,14.57
2018-04-02T10:27:41.187Z,12.97
2018-04-02T10:30:08.787Z,37.85
2018-04-02T10:32:37.148Z,14.70
2018-04-02T10:35:04.740Z,15.73
2018-04-02T10:37:32.542Z,6.20
2018-04-02T10:40:00.148Z,6.83
2018-04-02T10:42:27.700Z,8.98
2018-04-02T10:44:56.042Z,11.33
2018-04-02T10:47:23.624Z,8.43
2018-04-02T10:49:52.994Z,10.63
2018-04-02T10:52:20.719Z,8.47
2018-04-02T10:54:48.733Z,12.33
2018-04-02T10:57:16.552Z,13.13
2018-04-02T10:59:44.199Z,7.90
2018-04-02T11:02:11.733Z,8.07
2018-04-02T11:04:39.491Z,9.23
2018-04-02T11:07:07.057Z,7.97
2018-04-02T11:09:34.808Z,8.13
2018-04-02T11:12:02.783Z,13.07
2018-04-02T11:14:30.343Z,10.53
2018-04-02T11:16:58.300Z,13.60
2018-04-02T11:19:26.040Z,15.57
2018-04-02T11:21:53.664Z,6.47
2018-04-02T11:24:21.229Z,9.43
2018-04-02T11:26:49.058Z,12.07
2018-04-02T11:29:17.132Z,9.33
2018-04-02T11:31:44.745Z,13.40
2018-04-02T11:34:13.122Z,8.87
2018-04-02T11:36:41.727Z,9.10
2018-04-02T11:39:09.284Z,10.13
2018-04-02T11:41:36.880Z,6.97
2018-04-02T11:44:05.101Z,10.80
2018-04-02T11:46:32.710Z,10.63
2018-04-02T11:49:00.359Z,10.30
2018-04-02T11:51:27.940Z,9.30
2018-04-02T11:53:55.559Z,7.27
2018-04-02T11:56:24.093Z,10.77
2018-04-02T11:58:51.669Z,9.02
2018-04-02T12:01:19.713Z,8.87
2018-04-02T12:03:47.311Z,11.17
2018-04-02T12:06:14.891Z,15.50
2018-04-02T12:08:42.504Z,9.50
2018-04-02T12:11:10.638Z,6.53
2018-04-02T12:13:38.711Z,8.80
2018-04-02T12:16:07.079Z,7.57
2018-04-02T12:18:34.653Z,13.10
2018-04-02T12:21:02.356Z,11.53
2018-04-02T12:23:29.856Z,14.23
2018-04-02T12:25:57.580Z,8.80
2018-04-02T12:28:25.741Z,20.85
2018-04-02T12:30:53.301Z,21.15
2018-04-02T12:33:21.130Z,20.12
2018-04-02T12:35:48.705Z,20.90
2018-04-02T12:38:16.315Z,10.90
2018-04-02T12:40:44.076Z,13.87
2018-04-02T12:43:11.850Z,12.53
2018-04-02T12:45:39.409Z,23.43
2018-04-02T12:48:08.018Z,21.98
2018-04-02T12:50:37.620Z,20.77
2018-04-02T12:53:05.356Z,15.53
2018-04-02T12:55:32.909Z,15.80
2018-04-02T12:58:00.977Z,9.60
2018-04-02T13:00:29.168Z,19.83
2018-04-02T13:02:56.720Z,15.57
2018-04-02T13:05:24.316Z,13.03
2018-04-02T13:07:51.869Z,46.92
2018-04-02T13:10:20.905Z,18.50
2018-04-02T13:12:49.821Z,17.70
2018-04-02T13:15:17.474Z,20.20
2018-04-02T13:17:45.036Z,13.30
2018-04-02T13:20:12.623Z,17.07
2018-04-02T13:22:40.399Z,33.63
2018-04-02T13:25:08.141Z,16.90
2018-04-02T13:27:36.605Z,20.75
2018-04-02T13:30:04.177Z,15.13
2018-04-02T13:32:32.371Z,26.03
2018-04-02T13:34:59.930Z,29.67
2018-04-02T13:37:28.079Z,20.07
2018-04-02T13:39:56.454Z,18.83
2018-04-02T13:42:24.349Z,24.07
2018-04-02T13:44:52.405Z,44.93
2018-04-02T13:47:20.490Z,13.60
2018-04-02T13:49:48.358Z,14.97
2018-04-02T13:52:16.017Z,10.50
2018-04-02T13:54:43.569Z,18.57
2018-04-02T13:57:11.172Z,9.63
2018-04-02T13:59:38.861Z,9.83
2018-04-02T14:02:06.429Z,15.80
2018-04-02T14:04:34.029Z,17.33
2018-04-02T14:07:01.652Z,12.50
2018-04-02T14:09:29.751Z,11.00
2018-04-02T14:11:57.304Z,15.70
2018-04-02T14:14:25.279Z,11.17
2018-04-02T14:16:52.861Z,23.87
2018-04-02T14:19:20.428Z,12.33
2018-04-02T14:21:48.048Z,16.00
2018-04-02T14:24:15.609Z,9.27
2018-04-02T14:26:44.095Z,12.10
2018-04-02T14:29:11.794Z,12.70
2018-04-02T14:31:40.648Z,3.63
2018-04-02T14:34:08.258Z,5.13
2018-04-02T14:36:36.383Z,6.70
2018-04-02T14:39:04.547Z,6.13
2018-04-02T14:41:32.488Z,4.77
2018-04-02T14:44:00.097Z,9.02
2018-04-02T14:46:28.362Z,7.47
2018-04-02T14:48:55.913Z,3.87
2018-04-02T14:51:23.640Z,5.63
2018-04-02T14:53:51.820Z,6.17
2018-04-02T14:56:19.425Z,6.63
2018-04-02T14:58:47.853Z,8.07
2018-04-02T15:01:15.396Z,3.30
2018-04-02T15:03:43.358Z,5.60
2018-04-02T15:06:10.945Z,7.93
2018-04-02T15:08:38.496Z,5.23
2018-04-02T15:11:06.340Z,7.75
2018-04-02T15:13:34.988Z,4.40
2018-04-02T15:16:02.532Z,5.37
2018-04-02T15:18:30.653Z,7.53
2018-04-02T15:20:58.252Z,6.70
2018-04-02T15:23:25.857Z,2.17
2018-04-02T15:25:53.506Z,1.50
2018-04-02T15:28:21.905Z,5.30
2018-04-02T15:30:50.329Z,3.37
2018-04-02T15:33:18.825Z,2.30
2018-04-02T15:35:46.889Z,4.43
2018-04-02T15:38:14.492Z,3.77
2018-04-02T15:40:42.040Z,3.40
2018-04-02T15:43:10.328Z,1.60
2018-04-02T15:45:37.889Z,2.17
2018-04-02T15:48:05.797Z,1.83
2018-04-02T15:50:33.621Z,2.77
2018-04-02T15:53:01.536Z,2.30
2018-04-02T15:55:29.136Z,1.43
2018-04-02T15:57:57.794Z,1.93
2018-04-02T16:00:26.048Z,2.17
2018-04-02T16:02:54.013Z,4.73
2018-04-02T16:05:23.376Z,4.07
2018-04-02T16:07:51.624Z,5.37
2018-04-02T16:10:19.976Z,9.53
2018-04-02T16:12:47.544Z,4.27
2018-04-02T16:15:15.377Z,4.50
2018-04-02T16:17:45.094Z,8.37
2018-04-02T16:20:12.688Z,5.23
2018-04-02T16:22:40.233Z,4.00
2018-04-02T16:25:09.130Z,4.27
2018-04-02T16:27:36.890Z,6.53
2018-04-02T16:30:04.860Z,6.07
2018-04-02T16:32:33.363Z,8.70
2018-04-02T16:35:01.469Z,4.73
2018-04-02T16:37:29.019Z,4.43
2018-04-02T16:39:56.624Z,4.13
2018-04-02T16:42:25.667Z,4.03
2018-04-02T16:44:53.894Z,4.53
2018-04-02T16:47:21.440Z,4.40
2018-04-02T16:49:48.992Z,2.90
2018-04-02T16:52:16.590Z,4.93
2018-04-02T16:54:44.205Z,3.43
2018-04-02T16:57:12.293Z,6.10
2018-04-02T16:59:39.849Z,7.90
2018-04-02T17:02:07.658Z,3.90
2018-04-02T17:04:35.205Z,5.20
2018-04-02T17:07:03.659Z,3.13
2018-04-02T17:09:31.411Z,5.10
2018-04-02T17:11:59.878Z,4.77
2018-04-02T17:14:27.822Z,2.50
2018-04-02T17:16:55.376Z,13.93
2018-04-02T17:19:22.981Z,6.43
2018-04-02T17:21:50.557Z,1.80
2018-04-02T17:24:18.440Z,1.77
2018-04-02T17:26:46.493Z,2.60
2018-04-02T17:29:15.266Z,3.57
2018-04-02T17:31:50.307Z,4.17
2018-04-02T17:34:18.464Z,4.60
2018-04-02T17:36:51.091Z,4.70
2018-04-02T17:39:19.044Z,4.43
2018-04-02T17:41:47.525Z,7.40
2018-04-02T17:44:16.226Z,6.10
2018-04-02T17:46:44.097Z,4.57
2018-04-02T17:49:12.098Z,9.17
2018-04-02T17:51:40.233Z,8.03
2018-04-02T17:54:08.698Z,10.53
2018-04-02T17:56:36.455Z,8.63
2018-04-02T17:59:04.828Z,7.00
2018-04-02T18:01:33.328Z,5.35
2018-04-02T18:04:01.399Z,6.20
2018-04-02T18:06:28.956Z,10.30
2018-04-02T18:08:57.264Z,7.57
2018-04-02T18:11:25.276Z,10.10
2018-04-02T18:13:53.132Z,10.60
2018-04-02T18:16:20.917Z,10.47
2018-04-02T18:18:49.504Z,8.80
2018-04-02T18:21:17.060Z,11.50
2018-04-02T18:23:45.738Z,16.47
2018-04-02T18:26:13.360Z,20.33
2018-04-02T18:28:41.318Z,12.77
2018-04-02T18:31:11.117Z,17.70
2018-04-02T18:33:39.820Z,16.40
2018-04-02T18:36:07.412Z,22.83
2018-04-02T18:38:34.967Z,15.57
2018-04-02T18:41:03.766Z,19.00
2018-04-02T18:43:32.079Z,18.50
2018-04-02T18:45:59.678Z,21.30
2018-04-02T18:48:28.492Z,18.97
2018-04-02T18:50:56.093Z,18.70
2018-04-02T18:53:24.055Z,18.95
2018-04-02T18:55:52.438Z,22.33
2018-04-02T18:58:20.882Z,21.93
2018-04-02T19:00:48.437Z,20.83
2018-04-02T19:03:16.063Z,19.97
2018-04-02T19:05:44.154Z,17.02
2018-04-02T19:08:12.484Z,21.47
2018-04-02T19:10:40.860Z,23.27
2018-04-02T19:13:09.397Z,15.97
2018-04-02T19:15:38.417Z,22.83
2018-04-02T19:18:06.023Z,19.13
2018-04-02T19:20:33.821Z,21.73
2018-04-02T19:23:03.211Z,17.20
2018-04-02T19:25:30.888Z,18.97
2018-04-02T19:27:59.416Z,22.97
2018-04-02T19:30:27.837Z,23.30
2018-04-02T19:32:55.802Z,19.77
2018-04-02T19:35:23.904Z,19.50
2018-04-02T19:37:52.584Z,17.97
2018-04-02T19:40:22.073Z,18.47
2018-04-02T19:42:50.688Z,19.83
2018-04-02T19:45:19.682Z,16.23
2018-04-02T19:47:47.939Z,17.47
2018-04-02T19:50:16.133Z,12.70
2018-04-02T19:52:44.292Z,11.53
2018-04-02T19:55:13.117Z,11.53
2018-04-02T19:57:40.751Z,14.47
2018-04-02T20:00:08.928Z,11.67
2018-04-02T20:02:37.315Z,14.47
2018-04-02T20:05:07.321Z,16.40
2018-04-02T20:07:35.771Z,14.27
2018-04-02T20:10:03.541Z,15.05
2018-04-02T20:12:31.749Z,20.57
2018-04-02T20:15:00.185Z,16.23
2018-04-02T20:17:28.936Z,16.60
2018-04-02T20:19:57.149Z,17.70
2018-04-02T20:22:25.969Z,16.33
2018-04-02T20:24:54.243Z,15.73
2018-04-02T20:27:23.649Z,17.47
2018-04-02T20:29:51.893Z,16.13
2018-04-02T20:32:20.164Z,19.03
2018-04-02T20:34:47.712Z,17.17
2018-04-02T20:37:15.941Z,20.37
2018-04-02T20:39:44.244Z,20.33
2018-04-02T20:42:11.796Z,25.77
2018-04-02T20:44:40.581Z,23.10
2018-04-02T20:47:08.597Z,21.07
2018-04-02T20:49:37.042Z,20.83
2018-04-02T20:52:05.192Z,20.97
2018-04-02T20:54:33.096Z,19.57
2018-04-02T20:57:01.111Z,17.70
2018-04-02T20:59:28.741Z,16.67
2018-04-02T21:01:56.962Z,18.43
2018-04-02T21:04:25.631Z,16.77
2018-04-02T21:06:53.189Z,20.37
2018-04-02T21:09:21.260Z,23.43
2018-04-02T21:12:03.261Z,19.90
2018-04-02T21:14:30.941Z,24.63
2018-04-02T21:16:58.930Z,26.43
2018-04-02T21:19:26.798Z,20.47
2018-04-02T21:21:54.364Z,19.80
2018-04-02T21:24:22.749Z,23.03
2018-04-02T21:26:50.877Z,23.58
2018-04-02T21:29:18.479Z,22.53
2018-04-02T21:31:46.101Z,21.50
2018-04-02T21:34:13.679Z,21.27
2018-04-02T21:36:41.929Z,21.27
2018-04-02T21:39:09.544Z,22.07
2018-04-02T21:41:37.896Z,23.65
2018-04-02T21:44:07.758Z,24.17
2018-04-02T21:46:35.308Z,25.13
2018-04-02T21:49:02.916Z,24.20
2018-04-02T21:51:31.037Z,21.53
2018-04-02T21:53:59.218Z,25.67
2018-04-02T21:56:27.564Z,25.17
2018-04-02T21:58:55.182Z,23.23
2018-04-02T22:01:22.736Z,23.60
2018-04-02T22:03:50.415Z,20.03
2018-04-02T22:06:29.636Z,23.80
2018-04-02T22:08:57.241Z,24.67
2018-04-02T22:11:25.127Z,32.97
2018-04-02T22:13:53.772Z,23.67
2018-04-02T22:16:21.332Z,25.97
2018-04-02T22:18:48.899Z,28.17
2018-04-02T22:21:16.789Z,23.90
2018-04-02T22:23:44.352Z,24.03
2018-04-02T22:26:11.920Z,23.40
2018-04-02T22:28:40.021Z,27.27
2018-04-02T22:31:08.097Z,22.20
2018-04-02T22:33:35.968Z,21.47
2018-04-02T22:36:03.608Z,19.00
2018-04-02T22:38:31.217Z,20.00
2018-04-02T22:40:58.802Z,19.47
2018-04-02T22:43:27.940Z,20.23
2018-04-02T22:45:55.496Z,17.77
2018-04-02T22:48:23.162Z,17.00
2018-04-02T22:50:50.816Z,17.37
2018-04-02T22:53:19.668Z,14.33
2018-04-02T22:55:47.879Z,14.57
2018-04-02T22:58:15.538Z,12.93
2018-04-02T23:00:43.465Z,13.77
2018-04-02T23:03:11.044Z,13.03
2018-04-02T23:05:40.169Z,12.60
2018-04-02T23:08:08.337Z,13.80
2018-04-02T23:10:35.888Z,14.37
2018-04-02T23:13:04.377Z,15.27
2018-04-02T23:15:31.971Z,11.90
2018-04-02T23:18:00.051Z,18.90
2018-04-02T23:20:27.604Z,11.63
2018-04-02T23:22:55.435Z,10.53
2018-04-02T23:25:23.020Z,9.07
2018-04-02T23:27:50.580Z,12.97
2018-04-02T23:30:18.305Z,11.17
2018-04-02T23:32:46.242Z,11.40
2018-04-02T23:35:13.793Z,13.93
2018-04-02T23:37:41.397Z,8.90
2018-04-02T23:40:08.945Z,12.20
2018-04-02T23:42:37.475Z,9.43
2018-04-02T23:45:05.612Z,11.98
2018-04-02T23:47:33.683Z,9.97
2018-04-02T23:50:01.296Z,10.30
2018-04-02T23:52:28.935Z,11.93
2018-04-02T23:54:56.784Z,10.10
2018-04-02T23:57:24.899Z,12.60
2018-04-02T23:59:52.508Z,15.47
